createdAt,value
2018-12-04T00:00:04.167Z,8.60
2018-12-04T00:00:40.643Z,8.60
2018-12-04T00:01:17.117Z,8.60
2018-12-04T00:01:54.009Z,8.60
2018-12-04T00:02:30.035Z,8.60
2018-12-04T00:03:06.925Z,8.60
2018-12-04T00:03:42.987Z,8.60
2018-12-04T00:04:19.032Z,8.60
2018-12-04T00:04:55.080Z,8.60
2018-12-04T00:05:31.531Z,8.70
2018-12-04T00:06:07.575Z,8.70
2018-12-04T00:06:44.418Z,8.70
2018-12-04T00:07:20.828Z,8.70
2018-12-04T00:07:56.928Z,8.70
2018-12-04T00:08:33.384Z,8.70
2018-12-04T00:09:09.427Z,8.70
2018-12-04T00:09:45.470Z,8.70
2018-12-04T00:10:21.519Z,8.70
2018-12-04T00:10:57.574Z,8.70
2018-12-04T00:11:34.081Z,8.70
2018-12-04T00:12:10.891Z,8.70
2018-12-04T00:12:47.769Z,8.70
2018-12-04T00:13:23.835Z,8.80
2018-12-04T00:14:00.704Z,8.80
2018-12-04T00:14:36.813Z,8.80
2018-12-04T00:15:13.352Z,8.80
2018-12-04T00:15:49.407Z,8.80
2018-12-04T00:16:25.462Z,8.80
2018-12-04T00:17:01.491Z,8.80
2018-12-04T00:17:37.538Z,8.90
2018-12-04T00:18:13.587Z,8.90
2018-12-04T00:18:49.633Z,8.90
2018-12-04T00:19:25.613Z,8.90
2018-12-04T00:20:02.256Z,8.90
2018-12-04T00:20:38.572Z,9.00
2018-12-04T00:21:14.633Z,9.00
2018-12-04T00:21:50.693Z,9.00
2018-12-04T00:22:27.148Z,9.00
2018-12-04T00:23:03.372Z,9.00
2018-12-04T00:23:39.441Z,9.00
2018-12-04T00:24:15.475Z,9.00
2018-12-04T00:24:51.575Z,9.00
2018-12-04T00:25:27.595Z,9.00
2018-12-04T00:26:04.130Z,9.00
2018-12-04T00:26:40.181Z,9.00
2018-12-04T00:27:16.231Z,9.00
2018-12-04T00:27:52.266Z,9.00
2018-12-04T00:28:28.291Z,9.00
2018-12-04T00:29:05.133Z,9.00
2018-12-04T00:29:41.178Z,9.00
2018-12-04T00:30:17.261Z,9.00
2018-12-04T00:30:53.308Z,9.00
2018-12-04T00:31:29.334Z,8.90
2018-12-04T00:32:05.858Z,9.00
2018-12-04T00:32:41.916Z,8.90
2018-12-04T00:33:17.953Z,9.00
2018-12-04T00:33:54.022Z,9.00
2018-12-04T00:34:30.066Z,9.00
2018-12-04T00:35:07.158Z,9.00
2018-12-04T00:35:43.203Z,9.00
2018-12-04T00:36:19.713Z,9.00
2018-12-04T00:36:55.996Z,9.00
2018-12-04T00:37:32.424Z,9.00
2018-12-04T00:38:09.184Z,9.00
2018-12-04T00:38:45.611Z,9.00
2018-12-04T00:39:22.239Z,9.10
2018-12-04T00:39:58.287Z,9.10
2018-12-04T00:40:34.666Z,9.10
2018-12-04T00:41:10.716Z,9.10
2018-12-04T00:41:46.918Z,9.10
2018-12-04T00:42:23.375Z,9.10
2018-12-04T00:42:59.432Z,9.10
2018-12-04T00:43:35.642Z,9.10
2018-12-04T00:44:11.684Z,9.10
2018-12-04T00:44:47.751Z,9.10
2018-12-04T00:45:23.851Z,9.10
2018-12-04T00:46:00.745Z,9.10
2018-12-04T00:46:36.787Z,9.10
2018-12-04T00:47:13.308Z,9.10
2018-12-04T00:47:49.406Z,9.10
2018-12-04T00:48:25.443Z,9.10
2018-12-04T00:49:01.973Z,9.10
2018-12-04T00:49:38.242Z,9.10
2018-12-04T00:50:14.718Z,9.10
2018-12-04T00:50:50.827Z,9.10
2018-12-04T00:51:26.875Z,9.20
2018-12-04T00:52:03.791Z,9.20
2018-12-04T00:52:39.812Z,9.20
2018-12-04T00:53:15.826Z,9.20
2018-12-04T00:53:52.234Z,9.20
2018-12-04T00:54:28.880Z,9.20
2018-12-04T00:55:06.661Z,9.20
2018-12-04T00:55:42.710Z,9.20
2018-12-04T00:56:19.168Z,9.20
2018-12-04T00:56:55.586Z,9.20
2018-12-04T00:57:31.618Z,9.20
2018-12-04T00:58:08.733Z,9.20
2018-12-04T00:58:44.826Z,9.20
2018-12-04T00:59:21.290Z,9.10
2018-12-04T00:59:57.338Z,9.10
2018-12-04T01:00:34.258Z,9.10
2018-12-04T01:01:10.701Z,9.10
2018-12-04T01:01:46.838Z,9.10
2018-12-04T01:02:23.286Z,9.10
2018-12-04T01:02:59.348Z,9.10
2018-12-04T01:03:35.397Z,9.10
2018-12-04T01:04:12.478Z,9.10
2018-12-04T01:04:48.516Z,9.10
2018-12-04T01:05:24.641Z,9.10
2018-12-04T01:06:01.529Z,9.10
2018-12-04T01:06:37.967Z,9.10
2018-12-04T01:07:14.436Z,9.10
2018-12-04T01:07:51.284Z,9.10
2018-12-04T01:08:27.317Z,9.10
2018-12-04T01:09:05.752Z,9.10
2018-12-04T01:09:42.210Z,9.10
2018-12-04T01:10:18.654Z,9.10
2018-12-04T01:10:54.740Z,9.10
2018-12-04T01:11:30.779Z,9.10
2018-12-04T01:12:07.609Z,9.10
2018-12-04T01:12:43.643Z,9.00
2018-12-04T01:13:20.088Z,9.00
2018-12-04T01:13:57.107Z,9.00
2018-12-04T01:14:33.579Z,9.00
2018-12-04T01:15:09.999Z,9.00
2018-12-04T01:15:46.057Z,9.00
2018-12-04T01:16:22.123Z,9.00
2018-12-04T01:16:58.225Z,9.00
2018-12-04T01:17:35.372Z,9.00
2018-12-04T01:18:11.853Z,9.00
2018-12-04T01:18:47.895Z,9.00
2018-12-04T01:19:23.948Z,9.00
2018-12-04T01:20:00.803Z,9.00
2018-12-04T01:20:37.360Z,9.00
2018-12-04T01:21:13.406Z,9.00
2018-12-04T01:21:49.434Z,9.00
2018-12-04T01:22:25.809Z,9.00
2018-12-04T01:23:02.267Z,9.00
2018-12-04T01:23:38.739Z,8.90
2018-12-04T01:24:15.170Z,8.90
2018-12-04T01:24:51.210Z,8.90
2018-12-04T01:25:27.271Z,8.80
2018-12-04T01:26:03.992Z,8.80
2018-12-04T01:26:40.011Z,8.70
2018-12-04T01:27:16.055Z,8.60
2018-12-04T01:27:52.099Z,8.60
2018-12-04T01:28:28.942Z,8.60
2018-12-04T01:29:05.705Z,8.50
2018-12-04T01:29:45.122Z,8.40
2018-12-04T01:30:21.572Z,8.40
2018-12-04T01:30:57.975Z,8.40
2018-12-04T01:31:34.391Z,8.30
2018-12-04T01:32:10.963Z,8.30
2018-12-04T01:32:47.883Z,8.30
2018-12-04T01:33:23.895Z,8.20
2018-12-04T01:34:00.359Z,8.20
2018-12-04T01:34:36.816Z,8.20
2018-12-04T01:35:12.831Z,8.20
2018-12-04T01:35:48.959Z,8.10
2018-12-04T01:36:25.362Z,8.10
2018-12-04T01:37:01.439Z,8.10
2018-12-04T01:37:37.907Z,8.10
2018-12-04T01:38:14.755Z,8.10
2018-12-04T01:38:50.781Z,8.10
2018-12-04T01:39:27.247Z,8.10
2018-12-04T01:40:04.625Z,8.00
2018-12-04T01:40:41.491Z,8.00
2018-12-04T01:41:18.351Z,8.00
2018-12-04T01:41:54.434Z,8.00
2018-12-04T01:42:30.449Z,8.00
2018-12-04T01:43:06.597Z,7.90
2018-12-04T01:43:42.663Z,7.90
2018-12-04T01:44:19.477Z,7.90
2018-12-04T01:44:55.917Z,7.90
2018-12-04T01:45:31.959Z,7.90
2018-12-04T01:46:08.075Z,7.80
2018-12-04T01:46:44.087Z,7.80
2018-12-04T01:47:20.563Z,7.80
2018-12-04T01:47:56.595Z,7.80
2018-12-04T01:48:32.660Z,7.80
2018-12-04T01:49:08.711Z,7.80
2018-12-04T01:49:44.833Z,7.80
2018-12-04T01:50:21.263Z,7.80
2018-12-04T01:50:58.107Z,7.80
2018-12-04T01:51:34.539Z,7.80
2018-12-04T01:52:10.535Z,7.80
2018-12-04T01:52:46.568Z,7.70
2018-12-04T01:53:22.554Z,7.70
2018-12-04T01:53:59.099Z,7.70
2018-12-04T01:54:35.523Z,7.70
2018-12-04T01:55:12.571Z,7.70
2018-12-04T01:55:51.393Z,7.70
2018-12-04T01:56:27.856Z,7.70
2018-12-04T01:57:04.743Z,7.70
2018-12-04T01:57:40.756Z,7.70
2018-12-04T01:58:17.675Z,7.70
2018-12-04T01:58:53.723Z,7.70
2018-12-04T01:59:29.823Z,7.70
2018-12-04T02:00:06.705Z,7.70
2018-12-04T02:00:42.779Z,7.60
2018-12-04T02:01:18.875Z,7.70
2018-12-04T02:01:54.917Z,7.70
2018-12-04T02:02:31.339Z,7.60
2018-12-04T02:03:07.423Z,7.60
2018-12-04T02:03:43.439Z,7.60
2018-12-04T02:04:19.471Z,7.60
2018-12-04T02:04:55.941Z,7.60
2018-12-04T02:05:32.065Z,7.60
2018-12-04T02:06:08.409Z,7.60
2018-12-04T02:06:44.479Z,7.60
2018-12-04T02:07:20.959Z,7.60
2018-12-04T02:07:57.020Z,7.60
2018-12-04T02:08:33.053Z,7.60
2018-12-04T02:09:09.563Z,7.60
2018-12-04T02:09:45.624Z,7.60
2018-12-04T02:10:21.664Z,7.60
2018-12-04T02:10:57.723Z,7.60
2018-12-04T02:11:34.555Z,7.60
2018-12-04T02:12:10.572Z,7.60
2018-12-04T02:12:46.743Z,7.60
2018-12-04T02:13:22.760Z,7.60
2018-12-04T02:13:59.519Z,7.50
2018-12-04T02:14:35.531Z,7.60
2018-12-04T02:15:11.597Z,7.50
2018-12-04T02:15:47.647Z,7.50
2018-12-04T02:16:24.111Z,7.50
2018-12-04T02:17:00.570Z,7.50
2018-12-04T02:17:36.633Z,7.50
2018-12-04T02:18:12.691Z,7.50
2018-12-04T02:18:48.789Z,7.50
2018-12-04T02:19:25.227Z,7.50
2018-12-04T02:20:01.723Z,7.50
2018-12-04T02:20:38.063Z,7.50
2018-12-04T02:21:14.515Z,7.50
2018-12-04T02:21:50.681Z,7.50
2018-12-04T02:22:26.718Z,7.50
2018-12-04T02:23:02.865Z,7.50
2018-12-04T02:23:39.317Z,7.50
2018-12-04T02:24:15.973Z,7.50
2018-12-04T02:24:52.053Z,7.50
2018-12-04T02:25:28.489Z,7.50
2018-12-04T02:26:04.894Z,7.50
2018-12-04T02:26:40.940Z,7.50
2018-12-04T02:27:16.918Z,7.50
2018-12-04T02:27:52.961Z,7.50
2018-12-04T02:28:34.466Z,7.40
2018-12-04T02:29:10.517Z,7.50
2018-12-04T02:29:46.585Z,7.40
2018-12-04T02:30:22.696Z,7.40
2018-12-04T02:30:59.232Z,7.40
2018-12-04T02:31:35.287Z,7.40
2018-12-04T02:32:12.051Z,7.40
2018-12-04T02:32:48.351Z,7.40
2018-12-04T02:33:24.787Z,7.40
2018-12-04T02:34:00.811Z,7.40
2018-12-04T02:34:36.824Z,7.40
2018-12-04T02:35:13.590Z,7.40
2018-12-04T02:35:50.443Z,7.40
2018-12-04T02:36:26.507Z,7.40
2018-12-04T02:37:02.948Z,7.40
2018-12-04T02:37:39.240Z,7.40
2018-12-04T02:38:16.131Z,7.40
2018-12-04T02:38:52.123Z,7.40
2018-12-04T02:39:28.553Z,7.40
2018-12-04T02:40:06.052Z,7.40
2018-12-04T02:40:42.047Z,7.40
2018-12-04T02:41:18.489Z,7.40
2018-12-04T02:41:55.369Z,7.40
2018-12-04T02:42:31.767Z,7.40
2018-12-04T02:43:08.220Z,7.40
2018-12-04T02:43:44.262Z,7.40
2018-12-04T02:44:20.307Z,7.40
2018-12-04T02:44:56.356Z,7.40
2018-12-04T02:45:32.387Z,7.40
2018-12-04T02:46:08.757Z,7.40
2018-12-04T02:46:45.191Z,7.40
2018-12-04T02:47:21.656Z,7.30
2018-12-04T02:47:57.703Z,7.30
2018-12-04T02:48:33.846Z,7.30
2018-12-04T02:49:09.892Z,7.30
2018-12-04T02:49:45.933Z,7.30
2018-12-04T02:50:22.766Z,7.20
2018-12-04T02:50:58.789Z,7.20
2018-12-04T02:51:34.829Z,7.20
2018-12-04T02:52:10.853Z,7.20
2018-12-04T02:52:46.883Z,7.20
2018-12-04T02:53:22.917Z,7.10
2018-12-04T02:53:59.359Z,7.10
2018-12-04T02:54:35.388Z,7.10
2018-12-04T02:55:11.457Z,7.10
2018-12-04T02:55:48.391Z,7.10
2018-12-04T02:56:24.412Z,7.10
2018-12-04T02:57:00.978Z,7.10
2018-12-04T02:57:37.825Z,7.10
2018-12-04T02:58:13.832Z,7.10
2018-12-04T02:58:49.847Z,7.10
2018-12-04T02:59:25.917Z,7.10
2018-12-04T03:00:02.383Z,7.20
2018-12-04T03:00:38.371Z,7.20
2018-12-04T03:01:14.390Z,7.20
2018-12-04T03:01:50.576Z,7.20
2018-12-04T03:02:26.658Z,7.20
2018-12-04T03:03:02.720Z,7.20
2018-12-04T03:03:39.173Z,7.20
2018-12-04T03:04:15.209Z,7.30
2018-12-04T03:04:51.595Z,7.30
2018-12-04T03:05:28.135Z,7.30
2018-12-04T03:06:04.571Z,7.30
2018-12-04T03:06:40.616Z,7.30
2018-12-04T03:07:17.149Z,7.30
2018-12-04T03:07:53.154Z,7.30
2018-12-04T03:08:29.209Z,7.30
2018-12-04T03:09:07.381Z,7.30
2018-12-04T03:09:43.832Z,7.30
2018-12-04T03:10:20.350Z,7.30
2018-12-04T03:10:56.385Z,7.30
2018-12-04T03:11:32.416Z,7.40
2018-12-04T03:12:08.496Z,7.40
2018-12-04T03:12:44.528Z,7.40
2018-12-04T03:13:20.582Z,7.40
2018-12-04T03:13:56.731Z,7.40
2018-12-04T03:14:33.127Z,7.40
2018-12-04T03:15:09.876Z,7.40
2018-12-04T03:15:45.896Z,7.40
2018-12-04T03:16:22.783Z,7.40
2018-12-04T03:16:58.989Z,7.40
2018-12-04T03:17:35.065Z,7.40
2018-12-04T03:18:11.058Z,7.40
2018-12-04T03:18:47.298Z,7.40
2018-12-04T03:19:23.674Z,7.40
2018-12-04T03:20:00.381Z,7.40
2018-12-04T03:20:36.410Z,7.40
2018-12-04T03:21:12.420Z,7.50
2018-12-04T03:21:48.548Z,7.50
2018-12-04T03:22:24.590Z,7.50
2018-12-04T03:23:00.612Z,7.50
2018-12-04T03:23:36.734Z,7.50
2018-12-04T03:24:13.223Z,7.50
2018-12-04T03:24:49.233Z,7.50
2018-12-04T03:25:26.119Z,7.50
2018-12-04T03:26:02.171Z,7.50
2018-12-04T03:26:38.210Z,7.50
2018-12-04T03:27:14.638Z,7.60
2018-12-04T03:27:50.647Z,7.60
2018-12-04T03:28:27.094Z,7.50
2018-12-04T03:29:03.136Z,7.60
2018-12-04T03:29:39.215Z,7.60
2018-12-04T03:30:15.230Z,7.60
2018-12-04T03:30:51.525Z,7.60
2018-12-04T03:31:27.985Z,7.60
2018-12-04T03:32:04.832Z,7.60
2018-12-04T03:32:41.276Z,7.60
2018-12-04T03:33:28.896Z,7.60
2018-12-04T03:34:04.936Z,7.60
2018-12-04T03:34:41.001Z,7.50
2018-12-04T03:35:17.058Z,7.60
2018-12-04T03:35:53.094Z,7.60
2018-12-04T03:36:29.139Z,7.60
2018-12-04T03:37:05.603Z,7.60
2018-12-04T03:37:41.646Z,7.60
2018-12-04T03:38:17.659Z,7.60
2018-12-04T03:38:54.126Z,7.60
2018-12-04T03:39:30.563Z,7.60
2018-12-04T03:40:08.843Z,7.60
2018-12-04T03:40:44.961Z,7.60
2018-12-04T03:41:21.390Z,7.60
2018-12-04T03:41:57.819Z,7.60
2018-12-04T03:42:34.688Z,7.60
2018-12-04T03:43:10.754Z,7.60
2018-12-04T03:43:47.222Z,7.60
2018-12-04T03:44:23.750Z,7.60
2018-12-04T03:45:03.463Z,7.60
2018-12-04T03:45:40.312Z,7.60
2018-12-04T03:46:16.343Z,7.60
2018-12-04T03:46:52.774Z,7.60
2018-12-04T03:47:29.195Z,7.60
2018-12-04T03:48:05.649Z,7.60
2018-12-04T03:48:41.755Z,7.60
2018-12-04T03:49:17.799Z,7.60
2018-12-04T03:49:53.857Z,7.60
2018-12-04T03:50:30.235Z,7.60
2018-12-04T03:51:06.665Z,7.60
2018-12-04T03:51:43.503Z,7.60
2018-12-04T03:53:22.973Z,7.60
2018-12-04T03:53:59.399Z,7.60
2018-12-04T03:54:36.042Z,7.60
2018-12-04T03:55:12.508Z,7.60
2018-12-04T03:55:48.585Z,7.60
2018-12-04T03:56:24.643Z,7.60
2018-12-04T03:57:00.678Z,7.60
2018-12-04T03:57:37.523Z,7.60
2018-12-04T03:58:13.917Z,7.60
2018-12-04T03:58:50.327Z,7.60
2018-12-04T03:59:27.335Z,7.60
2018-12-04T04:00:04.791Z,7.60
2018-12-04T04:00:40.803Z,7.70
2018-12-04T04:01:17.447Z,7.60
2018-12-04T04:01:53.906Z,7.60
2018-12-04T04:02:30.347Z,7.60
2018-12-04T04:03:06.383Z,7.60
2018-12-04T04:03:42.425Z,7.60
2018-12-04T04:04:18.881Z,7.70
2018-12-04T04:04:54.955Z,7.70
2018-12-04T04:05:31.018Z,7.60
2018-12-04T04:06:07.490Z,7.60
2018-12-04T04:06:43.523Z,7.70
2018-12-04T04:07:19.559Z,7.60
2018-12-04T04:07:56.245Z,7.70
2018-12-04T04:08:32.663Z,7.70
2018-12-04T04:09:09.683Z,7.60
2018-12-04T04:09:46.168Z,7.70
2018-12-04T04:10:22.658Z,7.70
2018-12-04T04:10:59.192Z,7.70
2018-12-04T04:11:35.688Z,7.70
2018-12-04T04:12:12.078Z,7.70
2018-12-04T04:12:48.082Z,7.70
2018-12-04T04:13:24.162Z,7.70
2018-12-04T04:14:00.599Z,7.70
2018-12-04T04:14:37.009Z,7.70
2018-12-04T04:15:19.748Z,7.70
2018-12-04T04:15:55.961Z,7.70
2018-12-04T04:16:32.407Z,7.70
2018-12-04T04:17:09.433Z,7.70
2018-12-04T04:17:45.515Z,7.70
2018-12-04T04:18:21.848Z,7.80
2018-12-04T04:18:58.855Z,7.80
2018-12-04T04:19:35.055Z,7.80
2018-12-04T04:20:11.130Z,7.70
2018-12-04T04:20:48.703Z,7.70
2018-12-04T04:21:25.631Z,7.70
2018-12-04T04:22:01.660Z,7.80
2018-12-04T04:22:37.694Z,7.70
2018-12-04T04:23:13.713Z,7.70
2018-12-04T04:23:49.736Z,7.70
2018-12-04T04:24:25.800Z,7.70
2018-12-04T04:25:01.895Z,7.70
2018-12-04T04:25:37.918Z,7.70
2018-12-04T04:26:13.954Z,7.70
2018-12-04T04:26:50.462Z,7.60
2018-12-04T04:27:26.492Z,7.60
2018-12-04T04:28:02.947Z,7.60
2018-12-04T04:28:39.007Z,7.50
2018-12-04T04:29:15.076Z,7.60
2018-12-04T04:29:51.080Z,7.50
2018-12-04T04:31:31.009Z,7.50
2018-12-04T04:32:07.475Z,7.50
2018-12-04T04:32:43.499Z,7.50
2018-12-04T04:33:19.942Z,7.50
2018-12-04T04:33:56.367Z,7.50
2018-12-04T04:34:32.759Z,7.50
2018-12-04T04:35:08.797Z,7.50
2018-12-04T04:35:45.205Z,7.50
2018-12-04T04:36:21.243Z,7.40
2018-12-04T04:36:57.355Z,7.50
2018-12-04T04:37:33.803Z,7.50
2018-12-04T04:38:09.828Z,7.50
2018-12-04T04:38:46.324Z,7.50
2018-12-04T04:39:22.366Z,7.50
2018-12-04T04:39:58.400Z,7.50
2018-12-04T04:40:34.435Z,7.50
2018-12-04T04:41:11.042Z,7.50
2018-12-04T04:41:47.130Z,7.40
2018-12-04T04:42:23.318Z,7.50
2018-12-04T04:42:59.370Z,7.40
2018-12-04T04:43:35.529Z,7.40
2018-12-04T04:44:11.964Z,7.40
2018-12-04T04:44:48.129Z,7.40
2018-12-04T04:45:24.532Z,7.40
2018-12-04T04:46:01.000Z,7.40
2018-12-04T04:46:37.043Z,7.40
2018-12-04T04:47:13.103Z,7.40
2018-12-04T04:47:49.140Z,7.40
2018-12-04T04:48:25.172Z,7.50
2018-12-04T04:49:01.218Z,7.50
2018-12-04T04:49:37.298Z,7.50
2018-12-04T04:50:13.738Z,7.50
2018-12-04T04:50:50.200Z,7.50
2018-12-04T04:51:26.302Z,7.50
2018-12-04T04:52:02.330Z,7.50
2018-12-04T04:52:38.387Z,7.60
2018-12-04T04:53:14.672Z,7.60
2018-12-04T04:53:50.778Z,7.50
2018-12-04T04:54:26.792Z,7.60
2018-12-04T04:55:02.862Z,7.60
2018-12-04T04:55:38.904Z,7.60
2018-12-04T04:56:14.955Z,7.60
2018-12-04T04:56:51.180Z,7.60
2018-12-04T04:57:27.660Z,7.60
2018-12-04T04:58:04.092Z,7.60
2018-12-04T04:58:40.115Z,7.60
2018-12-04T04:59:16.159Z,7.60
2018-12-04T04:59:52.167Z,7.60
2018-12-04T05:00:28.636Z,7.60
2018-12-04T05:01:05.092Z,7.60
2018-12-04T05:01:41.577Z,7.60
2018-12-04T05:02:18.000Z,7.60
2018-12-04T05:02:54.877Z,7.60
2018-12-04T05:03:30.914Z,7.60
2018-12-04T05:04:06.949Z,7.60
2018-12-04T05:04:44.294Z,7.60
2018-12-04T05:05:20.364Z,7.60
2018-12-04T05:05:56.398Z,7.60
2018-12-04T05:06:32.440Z,7.60
2018-12-04T05:07:08.521Z,7.60
2018-12-04T05:07:44.892Z,7.50
2018-12-04T05:08:21.228Z,7.50
2018-12-04T05:08:57.488Z,7.50
2018-12-04T05:09:33.574Z,7.40
2018-12-04T05:10:10.048Z,7.40
2018-12-04T05:10:46.492Z,7.40
2018-12-04T05:11:22.538Z,7.40
2018-12-04T05:11:58.574Z,7.40
2018-12-04T05:12:35.404Z,7.30
2018-12-04T05:13:11.795Z,7.30
2018-12-04T05:13:47.921Z,7.30
2018-12-04T05:14:24.397Z,7.30
2018-12-04T05:15:00.539Z,7.30
2018-12-04T05:15:37.061Z,7.30
2018-12-04T05:16:13.525Z,7.30
2018-12-04T05:16:49.574Z,7.30
2018-12-04T05:17:25.620Z,7.20
2018-12-04T05:18:02.089Z,7.20
2018-12-04T05:18:38.525Z,7.20
2018-12-04T05:19:14.982Z,7.20
2018-12-04T05:19:51.014Z,7.20
2018-12-04T05:20:27.072Z,7.20
2018-12-04T05:21:03.425Z,7.10
2018-12-04T05:21:39.437Z,7.10
2018-12-04T05:22:15.463Z,7.10
2018-12-04T05:22:51.562Z,7.10
2018-12-04T05:23:27.635Z,7.10
2018-12-04T05:24:04.476Z,7.10
2018-12-04T05:24:40.898Z,7.10
2018-12-04T05:25:16.970Z,7.00
2018-12-04T05:25:53.421Z,7.00
2018-12-04T05:26:29.842Z,7.00
2018-12-04T05:27:06.288Z,7.00
2018-12-04T05:27:42.400Z,7.00
2018-12-04T05:28:18.465Z,7.00
2018-12-04T05:28:54.508Z,7.00
2018-12-04T05:29:30.544Z,7.00
2018-12-04T05:30:08.186Z,7.00
2018-12-04T05:30:44.228Z,7.00
2018-12-04T05:31:20.290Z,7.00
2018-12-04T05:31:56.325Z,7.00
2018-12-04T05:32:32.373Z,7.00
2018-12-04T05:33:08.408Z,7.10
2018-12-04T05:33:44.453Z,7.10
2018-12-04T05:34:20.893Z,7.10
2018-12-04T05:34:56.895Z,7.10
2018-12-04T05:35:32.984Z,7.10
2018-12-04T05:36:09.380Z,7.10
2018-12-04T05:36:45.402Z,7.10
2018-12-04T05:37:21.862Z,7.10
2018-12-04T05:37:58.283Z,7.10
2018-12-04T05:38:34.313Z,7.10
2018-12-04T05:39:10.344Z,7.10
2018-12-04T05:39:46.368Z,7.10
2018-12-04T05:40:22.394Z,7.00
2018-12-04T05:40:58.434Z,7.10
2018-12-04T05:41:34.458Z,7.10
2018-12-04T05:42:10.956Z,7.10
2018-12-04T05:42:47.409Z,7.10
2018-12-04T05:43:23.842Z,7.00
2018-12-04T05:43:59.871Z,7.10
2018-12-04T05:44:35.888Z,7.00
2018-12-04T05:45:11.939Z,7.00
2018-12-04T05:45:48.376Z,7.00
2018-12-04T05:46:24.400Z,7.00
2018-12-04T05:47:00.409Z,6.90
2018-12-04T05:47:36.420Z,7.00
2018-12-04T05:48:12.462Z,6.90
2018-12-04T05:48:48.862Z,6.90
2018-12-04T05:49:24.915Z,6.90
2018-12-04T05:50:01.301Z,6.90
2018-12-04T05:50:37.754Z,6.90
2018-12-04T05:51:14.272Z,6.80
2018-12-04T05:51:50.323Z,6.80
2018-12-04T05:52:26.384Z,6.80
2018-12-04T05:53:13.914Z,6.80
2018-12-04T05:53:49.922Z,6.80
2018-12-04T05:54:25.939Z,6.80
2018-12-04T05:55:02.120Z,6.70
2018-12-04T05:55:38.659Z,6.70
2018-12-04T05:56:14.705Z,6.70
2018-12-04T05:56:51.198Z,6.70
2018-12-04T05:57:27.220Z,6.70
2018-12-04T05:58:03.675Z,6.70
2018-12-04T05:58:40.356Z,6.70
2018-12-04T05:59:16.814Z,6.70
2018-12-04T05:59:52.924Z,6.70
2018-12-04T06:00:29.013Z,6.60
2018-12-04T06:01:05.443Z,6.60
2018-12-04T06:01:41.884Z,6.60
2018-12-04T06:02:18.242Z,6.60
2018-12-04T06:02:54.673Z,6.60
2018-12-04T06:03:31.080Z,6.60
2018-12-04T06:04:07.503Z,6.60
2018-12-04T06:04:43.503Z,6.60
2018-12-04T06:05:19.920Z,6.60
2018-12-04T06:05:55.950Z,6.50
2018-12-04T06:06:31.953Z,6.60
2018-12-04T06:07:07.952Z,6.60
2018-12-04T06:07:44.392Z,6.50
2018-12-04T06:08:20.518Z,6.50
2018-12-04T06:08:56.596Z,6.50
2018-12-04T06:09:32.700Z,6.50
2018-12-04T06:10:09.474Z,6.50
2018-12-04T06:10:45.928Z,6.50
2018-12-04T06:11:22.055Z,6.50
2018-12-04T06:11:58.552Z,6.50
2018-12-04T06:12:34.593Z,6.50
2018-12-04T06:13:11.418Z,6.50
2018-12-04T06:13:47.472Z,6.40
2018-12-04T06:14:24.178Z,6.40
2018-12-04T06:15:00.241Z,6.40
2018-12-04T06:15:36.668Z,6.40
2018-12-04T06:16:12.848Z,6.40
2018-12-04T06:16:49.100Z,6.40
2018-12-04T06:17:25.540Z,6.40
2018-12-04T06:18:02.360Z,6.40
2018-12-04T06:18:38.858Z,6.40
2018-12-04T06:19:14.900Z,6.40
2018-12-04T06:19:51.037Z,6.40
2018-12-04T06:20:27.863Z,6.40
2018-12-04T06:21:04.319Z,6.40
2018-12-04T06:21:40.416Z,6.40
2018-12-04T06:22:17.099Z,6.40
2018-12-04T06:22:53.497Z,6.40
2018-12-04T06:23:29.501Z,6.30
2018-12-04T06:24:05.897Z,6.30
2018-12-04T06:24:42.565Z,6.30
2018-12-04T06:25:19.016Z,6.30
2018-12-04T06:25:55.057Z,6.30
2018-12-04T06:26:31.171Z,6.30
2018-12-04T06:27:07.762Z,6.30
2018-12-04T06:27:43.803Z,6.30
2018-12-04T06:28:19.872Z,6.30
2018-12-04T06:28:56.203Z,6.30
2018-12-04T06:29:32.229Z,6.30
2018-12-04T06:30:09.262Z,6.20
2018-12-04T06:30:45.723Z,6.20
2018-12-04T06:31:21.801Z,6.20
2018-12-04T06:31:57.846Z,6.20
2018-12-04T06:32:34.219Z,6.20
2018-12-04T06:33:11.434Z,6.20
2018-12-04T06:33:47.936Z,6.20
2018-12-04T06:34:24.360Z,6.20
2018-12-04T06:35:00.424Z,6.10
2018-12-04T06:35:36.521Z,6.10
2018-12-04T06:36:13.329Z,6.10
2018-12-04T06:36:49.380Z,6.00
2018-12-04T06:37:25.405Z,6.10
2018-12-04T06:38:01.490Z,6.00
2018-12-04T06:38:37.542Z,6.00
2018-12-04T06:39:13.583Z,6.00
2018-12-04T06:39:49.622Z,6.00
2018-12-04T06:40:26.106Z,6.00
2018-12-04T06:41:02.548Z,6.00
2018-12-04T06:41:39.079Z,5.90
2018-12-04T06:42:15.128Z,5.90
2018-12-04T06:42:51.588Z,5.90
2018-12-04T06:43:27.605Z,5.90
2018-12-04T06:44:04.514Z,5.90
2018-12-04T06:44:40.559Z,5.90
2018-12-04T06:45:17.402Z,5.90
2018-12-04T06:45:53.427Z,5.90
2018-12-04T06:46:29.480Z,5.80
2018-12-04T06:47:05.840Z,5.90
2018-12-04T06:47:41.889Z,5.80
2018-12-04T06:48:18.347Z,5.80
2018-12-04T06:48:54.718Z,5.80
2018-12-04T06:49:30.762Z,5.80
2018-12-04T06:50:09.856Z,5.80
2018-12-04T06:50:45.868Z,5.80
2018-12-04T06:51:21.944Z,5.80
2018-12-04T06:51:58.412Z,5.80
2018-12-04T06:52:34.549Z,5.80
2018-12-04T06:53:10.968Z,5.80
2018-12-04T06:53:47.058Z,5.80
2018-12-04T06:54:23.126Z,5.80
2018-12-04T06:55:01.203Z,5.70
2018-12-04T06:55:37.276Z,5.70
2018-12-04T06:56:14.498Z,5.80
2018-12-04T06:56:52.472Z,5.80
2018-12-04T06:57:28.965Z,5.70
2018-12-04T06:58:05.370Z,5.70
2018-12-04T06:58:41.430Z,5.70
2018-12-04T06:59:17.452Z,5.70
2018-12-04T06:59:53.892Z,5.70
2018-12-04T07:00:30.508Z,5.70
2018-12-04T07:01:06.920Z,5.70
2018-12-04T07:01:42.976Z,5.60
2018-12-04T07:02:18.982Z,5.70
2018-12-04T07:02:55.424Z,5.70
2018-12-04T07:03:31.456Z,5.70
2018-12-04T07:04:07.492Z,5.70
2018-12-04T07:04:44.286Z,5.70
2018-12-04T07:05:20.736Z,5.70
2018-12-04T07:05:56.936Z,5.70
2018-12-04T07:06:32.976Z,5.70
2018-12-04T07:07:09.375Z,5.70
2018-12-04T07:07:45.432Z,5.70
2018-12-04T07:08:21.876Z,5.70
2018-12-04T07:08:57.925Z,5.70
2018-12-04T07:09:33.951Z,5.70
2018-12-04T07:10:10.373Z,5.70
2018-12-04T07:10:46.502Z,5.70
2018-12-04T07:11:25.074Z,5.70
2018-12-04T07:12:02.661Z,5.70
2018-12-04T07:12:39.089Z,5.70
2018-12-04T07:13:15.514Z,5.70
2018-12-04T07:13:51.601Z,5.70
2018-12-04T07:14:27.626Z,5.70
2018-12-04T07:15:04.530Z,5.70
2018-12-04T07:15:40.540Z,5.70
2018-12-04T07:16:16.585Z,5.70
2018-12-04T07:16:55.524Z,5.60
2018-12-04T07:17:32.008Z,5.60
2018-12-04T07:18:08.016Z,5.60
2018-12-04T07:18:44.068Z,5.60
2018-12-04T07:19:20.515Z,5.60
2018-12-04T07:19:56.545Z,5.60
2018-12-04T07:20:32.558Z,5.60
2018-12-04T07:21:09.478Z,5.60
2018-12-04T07:21:45.525Z,5.50
2018-12-04T07:22:21.605Z,5.50
2018-12-04T07:22:58.016Z,5.50
2018-12-04T07:23:34.063Z,5.50
2018-12-04T07:24:10.110Z,5.50
2018-12-04T07:24:46.157Z,5.50
2018-12-04T07:25:22.156Z,5.40
2018-12-04T07:25:58.658Z,5.50
2018-12-04T07:26:35.094Z,5.40
2018-12-04T07:27:11.890Z,5.40
2018-12-04T07:27:47.960Z,5.40
2018-12-04T07:28:24.378Z,5.40
2018-12-04T07:29:00.396Z,5.40
2018-12-04T07:29:36.416Z,5.40
2018-12-04T07:30:14.599Z,5.40
2018-12-04T07:30:50.897Z,5.40
2018-12-04T07:31:27.242Z,5.40
2018-12-04T07:32:04.390Z,5.40
2018-12-04T07:32:40.845Z,5.40
2018-12-04T07:33:16.914Z,5.40
2018-12-04T07:33:53.331Z,5.40
2018-12-04T07:34:29.341Z,5.40
2018-12-04T07:35:07.522Z,5.40
2018-12-04T07:35:43.568Z,5.40
2018-12-04T07:36:20.023Z,5.40
2018-12-04T07:36:56.256Z,5.40
2018-12-04T07:37:32.246Z,5.40
2018-12-04T07:38:08.292Z,5.40
2018-12-04T07:38:44.336Z,5.40
2018-12-04T07:39:20.378Z,5.40
2018-12-04T07:39:56.418Z,5.40
2018-12-04T07:40:32.503Z,5.40
2018-12-04T07:41:08.928Z,5.50
2018-12-04T07:41:45.383Z,5.50
2018-12-04T07:42:21.480Z,5.50
2018-12-04T07:42:57.500Z,5.50
2018-12-04T07:43:34.486Z,5.50
2018-12-04T07:44:10.524Z,5.50
2018-12-04T07:44:46.588Z,5.50
2018-12-04T07:45:23.014Z,5.50
2018-12-04T07:45:59.895Z,5.50
2018-12-04T07:46:35.919Z,5.50
2018-12-04T07:47:11.942Z,5.60
2018-12-04T07:47:48.404Z,5.60
2018-12-04T07:48:25.244Z,5.60
2018-12-04T07:49:01.683Z,5.60
2018-12-04T07:49:37.894Z,5.70
2018-12-04T07:50:14.300Z,5.70
2018-12-04T07:50:50.739Z,5.70
2018-12-04T07:51:26.792Z,5.70
2018-12-04T07:52:03.646Z,5.70
2018-12-04T07:52:39.686Z,5.70
2018-12-04T07:53:19.108Z,5.80
2018-12-04T07:53:55.132Z,5.80
2018-12-04T07:54:31.175Z,5.80
2018-12-04T07:55:07.957Z,5.90
2018-12-04T07:55:45.504Z,5.90
2018-12-04T07:56:21.985Z,5.90
2018-12-04T07:56:58.562Z,6.00
2018-12-04T07:57:35.438Z,5.90
2018-12-04T07:58:11.483Z,6.00
2018-12-04T07:58:47.558Z,6.00
2018-12-04T07:59:23.976Z,6.00
2018-12-04T08:00:00.012Z,6.10
2018-12-04T08:00:36.032Z,6.10
2018-12-04T08:01:12.084Z,6.10
2018-12-04T08:01:48.184Z,6.20
2018-12-04T08:02:24.302Z,6.10
2018-12-04T08:03:00.703Z,6.10
2018-12-04T08:03:36.752Z,6.10
2018-12-04T08:04:12.790Z,6.10
2018-12-04T08:04:48.874Z,6.10
2018-12-04T08:05:25.315Z,6.10
2018-12-04T08:06:05.952Z,6.10